Airfield :
LOGIN :

Register | Disclaimer

   EN    FR    IT 

 










Legend :    VFR   Marginal VFR   IFR   Intensive IFR   Very Intensive IFR
Visi :
Ceiling :
>= 8 km
>= 3000ft
5 to 8 km
1000 to 3000 ft
1500m to 5 km
500 to 1000 ft
800 to 1500m
200 to 500 ft
< 800m
< 200 ft
Symbols :   Thunderstorms  Fog  Heavy snow  Heavy precipitations  Wind > 20 kt
SIGMETs :     Misc.  Thunderstorms  Icing  Turbulence  Mountain Waves  Volcanic Ashes






- Airport Elevation : 119 ft
- IATA code : WAT


EIWF - Waterford

CURRENT METAR :
  • 281530Z 30014G24KT 270V340 9999 FEW035 06/00 Q0998

EXPIRED METARs :
  • 281500Z 30015KT 270V330 9999 FEW035 SCT045 05/00 Q0998
  • 281430Z 30013KT 270V340 9999 SCT035 06/00 Q0998
  • 281400Z 29013KT 250V320 9999 SCT041 06/01 Q0997
  • 281330Z 28014G26KT 240V320 9999 SCT038 06/01 Q0997
  • 281300Z 28012KT 230V310 9999 SCT038 05/00 Q0997

TAF TAF EIWF
Valid from the 28 at 15:00 until the 29 at 00:00 UTC


281400Z 2815/2824 28012KT 9999 SCT035
PROB30
TEMPO 2815/2818 -SHRAGS SCT020CB
TEMPO 2815/2821 28013G24KT
ATIS : +353 51 877 000



MET'MAP, your aeronautical weather chart ! - Copyright ORBIFLY December 2007 - Disclaimer

ORBIFLY MET'MAP TEAM :

Programming & Development : Alexandra Zaïnal
Concept & original design : Baudouin d'Aumeries
Assistance for programming : Marc-Olivier Méhu
Technical & hardware support : Manuel Goepfert

Contact : metmap@orbifly.com




SOURCES & CREDITS :

   NOAA